createdAt,value
2017-09-25T16:39:01.290Z,18.30
2017-09-25T16:41:28.826Z,18.30
2017-09-25T16:43:56.461Z,18.30
2017-09-25T16:46:23.972Z,18.40
2017-09-25T16:48:51.526Z,18.50
2017-09-25T16:51:19.358Z,18.50
2017-09-25T16:53:47.095Z,18.50
2017-09-25T16:56:14.629Z,18.50
2017-09-25T16:58:42.917Z,18.60
2017-09-25T17:01:10.412Z,18.60
2017-09-25T17:03:38.015Z,18.60
2017-09-25T17:06:05.592Z,18.50
2017-09-25T17:08:33.193Z,18.50
2017-09-25T17:11:02.560Z,18.50
2017-09-25T17:13:32.312Z,18.40
2017-09-25T17:15:59.940Z,18.40
2017-09-25T17:18:27.487Z,18.40
2017-09-25T17:23:48.201Z,18.40
2017-09-25T17:26:15.726Z,18.30
2017-09-25T17:28:43.228Z,18.30
2017-09-25T17:31:10.739Z,18.30
2017-09-25T17:33:39.072Z,18.20
2017-09-25T17:36:06.672Z,18.10
2017-09-25T17:38:34.271Z,18.20
2017-09-25T17:41:02.631Z,18.10
2017-09-25T17:43:30.168Z,18.00
2017-09-25T17:45:57.723Z,18.00
2017-09-25T17:48:25.270Z,18.00
2017-09-25T17:50:52.811Z,18.00
2017-09-25T17:53:20.338Z,18.00
2017-09-25T17:55:47.878Z,18.00
2017-09-25T17:58:15.373Z,17.90
2017-09-25T18:00:42.890Z,17.90
2017-09-25T18:03:10.380Z,17.90
2017-09-25T18:05:37.891Z,17.90
2017-09-25T18:08:06.209Z,17.80
2017-09-25T18:10:33.753Z,17.80
2017-09-25T18:13:12.857Z,17.80
2017-09-25T18:15:40.405Z,17.80
2017-09-25T18:18:07.914Z,17.70
2017-09-25T18:20:37.207Z,17.60
2017-09-25T18:23:04.782Z,17.60
2017-09-25T18:25:32.294Z,17.50
2017-09-25T18:27:59.820Z,17.50
2017-09-25T18:30:28.072Z,17.40
2017-09-25T18:32:55.585Z,17.30
2017-09-25T18:35:23.085Z,17.30
2017-09-25T18:37:50.593Z,17.40
2017-09-25T18:40:18.088Z,17.30
2017-09-25T18:42:45.596Z,17.20
2017-09-25T18:45:13.848Z,16.90
2017-09-25T18:47:42.129Z,16.80
2017-09-25T18:50:09.624Z,16.70
2017-09-25T18:52:37.144Z,17.00
2017-09-25T18:55:04.636Z,17.10
2017-09-25T18:57:32.156Z,17.20
2017-09-25T18:59:59.649Z,17.20
2017-09-25T19:02:27.157Z,17.10
2017-09-25T19:04:54.653Z,17.00
2017-09-25T19:07:22.168Z,17.00
2017-09-25T19:09:49.705Z,16.90
2017-09-25T19:12:17.277Z,16.70
2017-09-25T19:14:44.782Z,16.60
2017-09-25T19:17:13.064Z,16.70
2017-09-25T19:19:40.585Z,16.60
2017-09-25T19:22:08.882Z,16.80
2017-09-25T19:24:36.376Z,16.70
2017-09-25T19:27:03.864Z,16.60
2017-09-25T19:29:31.382Z,16.70
2017-09-25T19:31:58.871Z,16.60
2017-09-25T19:34:26.384Z,16.60
2017-09-25T19:36:53.872Z,16.50
2017-09-25T19:39:21.385Z,16.40
2017-09-25T19:41:48.897Z,16.30
2017-09-25T19:44:16.425Z,16.20
2017-09-25T19:46:43.925Z,16.10
2017-09-25T19:49:16.344Z,16.20
2017-09-25T19:51:45.808Z,16.20
2017-09-25T19:54:19.603Z,16.30
2017-09-25T19:56:53.492Z,16.20
2017-09-25T19:59:21.797Z,16.40
2017-09-25T20:01:49.312Z,16.30
2017-09-25T20:04:16.823Z,16.30
2017-09-25T20:06:44.325Z,16.30
2017-09-25T20:09:12.008Z,16.20
2017-09-25T20:11:39.980Z,16.10
2017-09-25T20:14:09.057Z,16.10
2017-09-25T20:16:43.032Z,16.00
2017-09-25T20:19:10.558Z,15.90
2017-09-25T20:21:38.058Z,16.00
2017-09-25T20:24:06.333Z,15.90
2017-09-25T20:26:33.828Z,15.80
2017-09-25T20:29:01.382Z,16.10
2017-09-25T20:31:29.660Z,16.20
2017-09-25T20:33:57.922Z,16.20
2017-09-25T20:36:26.188Z,16.20
2017-09-25T20:38:53.677Z,16.10
2017-09-25T20:41:23.661Z,16.30
2017-09-25T20:43:51.169Z,16.10
2017-09-25T20:46:18.688Z,16.10
2017-09-25T20:48:46.180Z,15.90
2017-09-25T20:51:13.733Z,15.80
2017-09-25T20:53:41.224Z,15.70
2017-09-25T20:56:08.732Z,15.60
2017-09-25T21:15:54.557Z,15.30
2017-09-25T21:18:22.068Z,15.20
2017-09-25T21:20:49.577Z,15.20
2017-09-25T21:23:17.064Z,15.20
2017-09-25T21:25:45.372Z,15.10
2017-09-25T21:28:12.861Z,15.10
2017-09-25T21:30:40.339Z,15.20
2017-09-25T21:33:07.849Z,15.20
2017-09-25T21:35:35.340Z,15.20
2017-09-25T21:38:02.844Z,15.30
2017-09-25T21:40:30.327Z,15.30
2017-09-25T21:42:57.836Z,15.20
2017-09-25T21:45:26.100Z,15.20
2017-09-25T21:47:54.376Z,15.20
2017-09-25T21:50:21.872Z,15.10
2017-09-25T21:52:49.379Z,15.10
2017-09-25T21:55:17.631Z,15.10
2017-09-25T21:57:45.140Z,15.00
2017-09-25T22:00:13.394Z,15.10
2017-09-25T22:02:40.903Z,15.10
2017-09-25T22:05:08.387Z,15.10
2017-09-25T22:07:36.657Z,15.00
2017-09-25T22:10:04.155Z,14.90
2017-09-25T22:12:31.664Z,14.90
2017-09-25T22:14:59.155Z,14.90
2017-09-25T22:17:27.408Z,14.90
2017-09-25T22:19:54.891Z,14.90
2017-09-25T22:22:22.415Z,14.90
2017-09-25T22:24:50.676Z,14.80
2017-09-25T22:27:18.932Z,14.80
2017-09-25T22:29:46.440Z,14.70
2017-09-25T22:32:13.936Z,14.80
2017-09-25T22:34:42.212Z,15.00
2017-09-25T22:37:09.692Z,15.00
2017-09-25T22:39:37.200Z,15.00
2017-09-25T22:42:04.688Z,15.10
2017-09-25T22:44:32.767Z,15.10
2017-09-25T22:47:01.016Z,14.90
2017-09-25T22:49:28.571Z,14.80
2017-09-25T22:51:56.827Z,14.80
2017-09-25T22:54:24.336Z,14.80
2017-09-25T22:56:51.827Z,14.80
2017-09-25T22:59:20.101Z,14.80
2017-09-25T23:01:55.959Z,14.70
2017-09-25T23:04:23.460Z,14.80
2017-09-25T23:06:51.721Z,14.70
2017-09-25T23:09:36.672Z,14.70
2017-09-25T23:12:04.932Z,14.60
2017-09-25T23:14:33.216Z,14.60
2017-09-25T23:17:00.712Z,14.50
2017-09-25T23:19:28.215Z,14.60
2017-09-25T23:21:55.705Z,14.60
2017-09-25T23:24:23.221Z,14.70
2017-09-25T23:26:50.720Z,14.80
2017-09-25T23:29:18.224Z,14.70
2017-09-25T23:31:46.172Z,14.70
2017-09-25T23:34:13.704Z,14.60
2017-09-25T23:36:41.236Z,14.60
2017-09-25T23:39:08.732Z,14.60
2017-09-25T23:41:37.002Z,14.50
2017-09-25T23:44:04.484Z,14.50
2017-09-25T23:46:31.993Z,14.50
2017-09-25T23:48:59.472Z,14.50
2017-09-25T23:51:26.990Z,14.60
2017-09-25T23:53:54.475Z,14.60
2017-09-25T23:56:21.979Z,14.60
2017-09-25T23:58:49.473Z,14.60
